createdAt,value
2022-09-23T00:00:34.029Z,7.74
2022-09-23T00:01:34.090Z,7.79
2022-09-23T00:02:34.048Z,7.68
2022-09-23T00:03:34.009Z,7.64
2022-09-23T00:04:34.003Z,7.72
2022-09-23T00:05:33.984Z,7.61
2022-09-23T00:06:33.978Z,7.61
2022-09-23T00:07:33.983Z,7.53
2022-09-23T00:08:33.954Z,7.57
2022-09-23T00:09:33.952Z,7.61
2022-09-23T00:10:33.929Z,7.63
2022-09-23T00:11:33.932Z,7.71
2022-09-23T00:12:33.953Z,7.64
2022-09-23T00:13:33.918Z,7.64
2022-09-23T00:14:33.901Z,7.67
2022-09-23T00:15:33.905Z,7.57
2022-09-23T00:16:33.998Z,7.58
2022-09-23T00:17:33.877Z,7.61
2022-09-23T00:18:33.890Z,7.63
2022-09-23T00:19:33.848Z,7.57
2022-09-23T00:20:33.840Z,7.68
2022-09-23T00:21:33.855Z,7.72
2022-09-23T00:22:33.836Z,7.75
2022-09-23T00:23:33.808Z,7.68
2022-09-23T00:24:33.805Z,7.75
2022-09-23T00:25:33.812Z,7.69
2022-09-23T00:26:33.814Z,7.67
2022-09-23T00:27:33.778Z,7.64
2022-09-23T00:28:33.767Z,7.72
2022-09-23T00:29:33.749Z,7.77
2022-09-23T00:30:33.804Z,7.60
2022-09-23T00:31:33.746Z,7.69
2022-09-23T00:32:33.731Z,7.61
2022-09-23T00:33:33.728Z,7.57
2022-09-23T00:34:33.708Z,7.43
2022-09-23T00:35:33.691Z,7.48
2022-09-23T00:36:33.693Z,7.46
2022-09-23T00:37:33.660Z,7.45
2022-09-23T00:38:33.675Z,7.40
2022-09-23T00:39:33.653Z,7.42
2022-09-23T00:40:33.718Z,7.40
2022-09-23T00:41:33.659Z,7.31
2022-09-23T00:42:33.628Z,7.34
2022-09-23T00:43:33.629Z,7.32
2022-09-23T00:44:33.608Z,7.35
2022-09-23T00:45:33.609Z,7.42
2022-09-23T00:46:33.713Z,7.43
2022-09-23T00:47:33.581Z,7.46
2022-09-23T00:48:33.565Z,7.46
2022-09-23T00:49:33.547Z,7.48
2022-09-23T00:50:33.564Z,7.46
2022-09-23T00:51:33.539Z,7.37
2022-09-23T00:52:33.519Z,7.34
2022-09-23T00:53:33.544Z,7.25
2022-09-23T00:54:33.526Z,7.37
2022-09-23T00:55:33.522Z,7.28
2022-09-23T00:56:33.477Z,7.13
2022-09-23T00:57:33.482Z,7.16
2022-09-23T00:58:33.481Z,7.23
2022-09-23T00:59:33.485Z,7.12
2022-09-23T01:00:33.475Z,7.12
2022-09-23T01:01:33.516Z,7.07
2022-09-23T01:02:33.531Z,7.21
2022-09-23T01:03:33.427Z,7.17
2022-09-23T01:04:33.423Z,7.12
2022-09-23T01:05:33.425Z,7.09
2022-09-23T01:06:33.396Z,7.13
2022-09-23T01:07:33.391Z,7.10
2022-09-23T01:08:33.378Z,7.13
2022-09-23T01:09:33.363Z,7.25
2022-09-23T01:10:33.350Z,7.12
2022-09-23T01:11:33.368Z,7.09
2022-09-23T01:12:33.341Z,7.12
2022-09-23T01:13:33.328Z,7.07
2022-09-23T01:14:33.317Z,7.15
2022-09-23T01:15:33.317Z,7.17
2022-09-23T01:16:33.417Z,7.20
2022-09-23T01:17:33.299Z,7.17
2022-09-23T01:18:33.272Z,7.09
2022-09-23T01:19:33.275Z,7.05
2022-09-23T01:20:33.282Z,7.12
2022-09-23T01:21:33.245Z,7.07
2022-09-23T01:22:33.252Z,6.97
2022-09-23T01:23:33.229Z,7.07
2022-09-23T01:24:33.242Z,6.99
2022-09-23T01:25:33.232Z,7.02
2022-09-23T01:26:33.202Z,6.91
2022-09-23T01:27:33.194Z,6.87
2022-09-23T01:28:33.197Z,6.85
2022-09-23T01:29:33.209Z,6.88
2022-09-23T01:30:33.208Z,6.79
2022-09-23T01:31:33.151Z,6.79
2022-09-23T01:32:33.138Z,6.76
2022-09-23T01:33:33.137Z,6.77
2022-09-23T01:34:33.143Z,6.79
2022-09-23T01:35:33.116Z,6.79
2022-09-23T01:36:33.115Z,6.87
2022-09-23T01:37:33.102Z,6.84
2022-09-23T01:38:33.109Z,6.80
2022-09-23T01:39:33.085Z,6.79
2022-09-23T01:40:33.111Z,6.80
2022-09-23T01:41:33.047Z,6.81
2022-09-23T01:42:33.054Z,6.77
2022-09-23T01:43:33.057Z,6.77
2022-09-23T01:44:33.042Z,6.71
2022-09-23T01:45:33.048Z,6.80
2022-09-23T01:46:33.022Z,6.84
2022-09-23T01:47:33.005Z,6.79
2022-09-23T01:48:33.104Z,6.71
2022-09-23T01:49:32.999Z,6.77
2022-09-23T01:50:32.982Z,6.79
2022-09-23T01:51:32.959Z,6.89
2022-09-23T01:52:32.984Z,6.84
2022-09-23T01:53:32.942Z,6.88
2022-09-23T01:54:32.936Z,7.10
2022-09-23T01:55:32.927Z,7.02
2022-09-23T01:57:04.807Z,6.85
2022-09-23T01:57:32.920Z,6.84
2022-09-23T01:58:32.882Z,6.81
2022-09-23T01:59:32.900Z,6.85
2022-09-23T02:00:32.882Z,6.71
2022-09-23T02:01:32.919Z,6.84
2022-09-23T02:02:32.892Z,6.84
2022-09-23T02:03:32.854Z,6.77
2022-09-23T02:04:32.828Z,6.71
2022-09-23T02:05:32.811Z,6.76
2022-09-23T02:06:32.824Z,6.74
2022-09-23T02:07:32.806Z,6.59
2022-09-23T02:08:32.796Z,6.79
2022-09-23T02:09:32.785Z,6.84
2022-09-23T02:10:32.759Z,6.66
2022-09-23T02:11:33.781Z,6.66
2022-09-23T02:12:32.755Z,6.64
2022-09-23T02:13:32.754Z,6.58
2022-09-23T02:14:32.745Z,6.58
2022-09-23T02:15:32.722Z,6.54
2022-09-23T02:16:32.760Z,6.55
2022-09-23T02:17:32.701Z,6.51
2022-09-23T02:18:32.686Z,6.56
2022-09-23T02:19:32.692Z,6.44
2022-09-23T02:20:32.671Z,6.48
2022-09-23T02:21:32.665Z,6.55
2022-09-23T02:22:32.665Z,6.43
2022-09-23T02:23:32.626Z,6.51
2022-09-23T02:24:32.636Z,6.52
2022-09-23T02:25:32.641Z,6.46
2022-09-23T02:26:32.611Z,6.44
2022-09-23T02:27:32.600Z,6.44
2022-09-23T02:28:32.590Z,6.54
2022-09-23T02:29:32.586Z,6.55
2022-09-23T02:30:32.585Z,6.59
2022-09-23T02:31:32.624Z,6.55
2022-09-23T02:32:32.551Z,6.70
2022-09-23T02:33:32.542Z,6.62
2022-09-23T02:34:32.559Z,6.59
2022-09-23T02:35:32.534Z,6.66
2022-09-23T02:36:32.546Z,6.67
2022-09-23T02:37:32.510Z,6.67
2022-09-23T02:38:32.502Z,6.61
2022-09-23T02:39:32.492Z,6.66
2022-09-23T02:40:32.532Z,6.61
2022-09-23T02:41:32.471Z,6.70
2022-09-23T02:42:32.456Z,6.61
2022-09-23T02:43:32.474Z,6.59
2022-09-23T02:44:32.450Z,6.54
2022-09-23T02:45:32.471Z,6.58
2022-09-23T02:46:32.422Z,6.61
2022-09-23T02:47:32.418Z,6.71
2022-09-23T02:48:32.435Z,6.69
2022-09-23T02:49:32.399Z,6.80
2022-09-23T02:50:32.385Z,6.67
2022-09-23T02:51:32.387Z,6.69
2022-09-23T02:52:32.389Z,6.74
2022-09-23T02:53:32.365Z,6.79
2022-09-23T02:54:32.377Z,6.81
2022-09-23T02:55:32.395Z,6.84
2022-09-23T02:56:33.336Z,6.84
2022-09-23T02:57:32.325Z,6.88
2022-09-23T02:58:32.353Z,6.80
2022-09-23T02:59:32.321Z,6.85
2022-09-23T03:00:32.287Z,6.81
2022-09-23T03:01:32.365Z,6.87
2022-09-23T03:02:32.293Z,6.80
2022-09-23T03:03:32.262Z,6.85
2022-09-23T03:04:32.269Z,6.89
2022-09-23T03:05:32.242Z,6.81
2022-09-23T03:06:32.249Z,6.88
2022-09-23T03:07:32.234Z,6.89
2022-09-23T03:08:32.218Z,6.97
2022-09-23T03:09:32.244Z,6.97
2022-09-23T03:10:32.203Z,6.87
2022-09-23T03:11:32.184Z,6.91
2022-09-23T03:12:32.185Z,6.94
2022-09-23T03:13:32.160Z,6.89
2022-09-23T03:14:32.163Z,6.91
2022-09-23T03:15:32.174Z,6.84
2022-09-23T03:16:32.177Z,6.98
2022-09-23T03:17:32.140Z,6.95
2022-09-23T03:18:32.154Z,7.03
2022-09-23T03:19:32.119Z,7.03
2022-09-23T03:20:32.104Z,6.84
2022-09-23T03:21:32.102Z,6.95
2022-09-23T03:22:32.087Z,7.02
2022-09-23T03:23:32.081Z,6.89
2022-09-23T03:24:32.098Z,6.94
2022-09-23T03:25:32.058Z,6.81
2022-09-23T03:26:32.046Z,6.88
2022-09-23T03:27:32.036Z,6.79
2022-09-23T03:28:32.026Z,6.84
2022-09-23T03:29:32.025Z,6.87
2022-09-23T03:30:32.000Z,6.85
2022-09-23T03:31:32.022Z,6.94
2022-09-23T03:32:31.987Z,6.89
2022-09-23T03:33:32.034Z,7.05
2022-09-23T03:34:31.968Z,7.07
2022-09-23T03:35:31.962Z,6.98
2022-09-23T03:36:31.948Z,7.03
2022-09-23T03:37:31.945Z,7.05
2022-09-23T03:38:31.955Z,7.03
2022-09-23T03:39:31.914Z,6.94
2022-09-23T03:40:31.967Z,7.02
2022-09-23T03:41:31.906Z,6.81
2022-09-23T03:42:31.892Z,6.80
2022-09-23T03:43:35.207Z,6.79
2022-09-23T03:44:31.903Z,6.81
2022-09-23T03:45:31.886Z,6.80
2022-09-23T03:46:31.852Z,6.79
2022-09-23T03:47:31.854Z,6.89
2022-09-23T03:48:31.851Z,6.87
2022-09-23T03:49:31.819Z,7.02
2022-09-23T03:50:32.815Z,6.98
2022-09-23T03:51:31.809Z,6.91
2022-09-23T03:52:31.801Z,6.88
2022-09-23T03:53:31.816Z,6.91
2022-09-23T03:54:31.783Z,6.85
2022-09-23T03:55:31.767Z,6.85
2022-09-23T03:56:31.752Z,6.87
2022-09-23T03:57:31.745Z,6.81
2022-09-23T03:58:31.758Z,6.84
2022-09-23T03:59:31.730Z,6.71
2022-09-23T04:00:31.739Z,6.85
2022-09-23T04:01:31.728Z,6.81
2022-09-23T04:02:31.728Z,6.73
2022-09-23T04:03:31.699Z,6.84
2022-09-23T04:04:31.689Z,6.79
2022-09-23T04:05:31.684Z,6.80
2022-09-23T04:06:31.689Z,6.79
2022-09-23T04:07:31.683Z,6.87
2022-09-23T04:08:31.649Z,6.95
2022-09-23T04:09:31.643Z,6.80
2022-09-23T04:10:31.628Z,6.92
2022-09-23T04:11:31.618Z,6.87
2022-09-23T04:12:31.618Z,6.95
2022-09-23T04:13:31.590Z,7.05
2022-09-23T04:14:31.581Z,6.98
2022-09-23T04:15:31.568Z,7.03
2022-09-23T04:16:31.640Z,6.97
2022-09-23T04:17:31.555Z,7.03
2022-09-23T04:18:31.565Z,6.97
2022-09-23T04:19:31.546Z,6.91
2022-09-23T04:20:31.517Z,6.99
2022-09-23T04:21:31.513Z,6.81
2022-09-23T04:22:31.500Z,6.80
2022-09-23T04:23:31.516Z,6.77
2022-09-23T04:24:31.496Z,6.74
2022-09-23T04:25:31.504Z,6.76
2022-09-23T04:26:31.469Z,6.56
2022-09-23T04:27:36.834Z,6.66
2022-09-23T04:28:33.465Z,6.74
2022-09-23T04:29:31.452Z,6.70
2022-09-23T04:30:31.446Z,6.70
2022-09-23T04:31:31.499Z,6.76
2022-09-23T04:32:31.415Z,6.70
2022-09-23T04:33:31.409Z,6.80
2022-09-23T04:34:31.401Z,6.88
2022-09-23T04:35:31.397Z,6.77
2022-09-23T04:36:31.395Z,6.71
2022-09-23T04:37:31.376Z,6.79
2022-09-23T04:38:31.359Z,6.81
2022-09-23T04:39:31.353Z,6.77
2022-09-23T04:40:31.399Z,6.76
2022-09-23T04:41:31.341Z,6.73
2022-09-23T04:42:31.326Z,6.69
2022-09-23T04:43:31.324Z,6.66
2022-09-23T04:44:31.310Z,6.59
2022-09-23T04:45:31.300Z,6.69
2022-09-23T04:46:31.316Z,6.74
2022-09-23T04:47:31.298Z,6.62
2022-09-23T04:48:31.255Z,6.64
2022-09-23T04:49:31.248Z,6.66
2022-09-23T04:50:31.257Z,6.84
2022-09-23T04:51:31.246Z,6.77
2022-09-23T04:52:31.249Z,6.76
2022-09-23T04:53:31.218Z,6.85
2022-09-23T04:54:31.203Z,6.89
2022-09-23T04:55:31.202Z,6.89
2022-09-23T04:56:31.188Z,6.92
2022-09-23T04:57:31.199Z,6.92
2022-09-23T04:58:31.166Z,6.88
2022-09-23T04:59:31.157Z,6.79
2022-09-23T05:00:31.182Z,6.81
2022-09-23T05:01:31.245Z,6.84
2022-09-23T05:02:31.208Z,6.69
2022-09-23T05:03:31.119Z,6.81
2022-09-23T05:04:31.105Z,6.80
2022-09-23T05:05:31.098Z,6.77
2022-09-23T05:06:31.107Z,6.77
2022-09-23T05:07:31.089Z,6.84
2022-09-23T05:08:31.067Z,6.87
2022-09-23T05:09:31.053Z,6.79
2022-09-23T05:10:31.055Z,6.80
2022-09-23T05:11:31.063Z,6.79
2022-09-23T05:12:31.031Z,6.79
2022-09-23T05:13:31.015Z,6.71
2022-09-23T05:14:31.012Z,6.79
2022-09-23T05:15:30.997Z,6.79
2022-09-23T05:16:31.137Z,6.71
2022-09-23T05:17:30.983Z,6.73
2022-09-23T05:18:30.993Z,6.73
2022-09-23T05:19:30.970Z,6.74
2022-09-23T05:20:30.953Z,6.84
2022-09-23T05:21:30.945Z,6.84
2022-09-23T05:22:30.927Z,6.79
2022-09-23T05:23:30.963Z,6.73
2022-09-23T05:24:30.902Z,6.70
2022-09-23T05:25:34.050Z,6.81
2022-09-23T05:26:30.904Z,6.74
2022-09-23T05:27:30.871Z,6.77
2022-09-23T05:28:32.890Z,6.81
2022-09-23T05:29:30.865Z,6.71
2022-09-23T05:30:30.855Z,6.77
2022-09-23T05:31:30.918Z,6.73
2022-09-23T05:32:30.856Z,6.81
2022-09-23T05:33:30.812Z,6.69
2022-09-23T05:34:31.814Z,6.62
2022-09-23T05:35:30.801Z,6.64
2022-09-23T05:36:35.584Z,6.66
2022-09-23T05:37:32.796Z,6.61
2022-09-23T05:38:30.775Z,6.64
2022-09-23T05:39:30.785Z,6.71
2022-09-23T05:40:30.793Z,6.61
2022-09-23T05:41:30.744Z,6.49
2022-09-23T05:42:30.736Z,6.52
2022-09-23T05:43:30.775Z,6.41
2022-09-23T05:44:30.728Z,6.48
2022-09-23T05:45:30.719Z,6.58
2022-09-23T05:46:30.810Z,6.59
2022-09-23T05:47:30.692Z,6.58
2022-09-23T05:48:30.678Z,6.70
2022-09-23T05:49:55.336Z,6.66
2022-09-23T05:50:32.659Z,6.67
2022-09-23T05:51:31.344Z,6.84
2022-09-23T05:52:31.643Z,6.76
2022-09-23T05:53:30.639Z,6.74
2022-09-23T05:54:30.625Z,6.67
2022-09-23T05:55:30.622Z,6.64
2022-09-23T05:56:30.626Z,6.62
2022-09-23T05:57:30.594Z,6.61
2022-09-23T05:58:30.587Z,6.73
2022-09-23T05:59:30.573Z,6.59
2022-09-23T06:00:30.558Z,6.61
2022-09-23T06:01:30.581Z,6.64
2022-09-23T06:02:30.598Z,6.69
2022-09-23T06:03:30.545Z,6.56
2022-09-23T06:04:30.530Z,6.62
2022-09-23T06:05:30.525Z,6.66
2022-09-23T06:06:30.549Z,6.54
2022-09-23T06:07:30.510Z,6.66
2022-09-23T06:08:30.487Z,6.54
2022-09-23T06:09:35.622Z,6.41
2022-09-23T06:10:32.469Z,6.38
2022-09-23T06:11:30.481Z,6.41
2022-09-23T06:12:30.456Z,6.43
2022-09-23T06:13:30.446Z,6.48
2022-09-23T06:14:30.445Z,6.49
2022-09-23T06:15:30.417Z,6.62
2022-09-23T06:16:30.536Z,6.66
2022-09-23T06:17:30.405Z,6.73
2022-09-23T06:18:30.396Z,6.70
2022-09-23T06:19:30.378Z,6.70
2022-09-23T06:20:30.382Z,6.70
2022-09-23T06:21:30.383Z,6.79
2022-09-23T06:22:30.357Z,6.67
2022-09-23T06:23:30.342Z,6.69
2022-09-23T06:24:31.549Z,6.74
2022-09-23T06:25:31.316Z,6.85
2022-09-23T06:26:31.335Z,6.81
2022-09-23T06:27:30.307Z,6.80
2022-09-23T06:28:30.304Z,6.89
2022-09-23T06:29:30.312Z,6.88
2022-09-23T06:30:30.288Z,6.80
2022-09-23T06:31:30.365Z,6.92
2022-09-23T06:32:30.256Z,6.89
2022-09-23T06:33:36.830Z,6.94
2022-09-23T06:34:43.383Z,6.98
2022-09-23T06:35:31.231Z,7.07
2022-09-23T06:36:40.551Z,7.07
2022-09-23T06:37:32.208Z,7.20
2022-09-23T06:38:30.217Z,7.31
2022-09-23T06:39:30.185Z,7.15
2022-09-23T06:40:30.222Z,6.87
2022-09-23T06:41:30.169Z,7.10
2022-09-23T06:42:30.197Z,7.10
2022-09-23T06:43:30.177Z,7.16
2022-09-23T06:44:30.139Z,7.16
2022-09-23T06:45:30.139Z,7.20
2022-09-23T06:46:30.199Z,7.25
2022-09-23T06:47:30.127Z,7.34
2022-09-23T06:48:30.128Z,7.42
2022-09-23T06:49:30.094Z,7.43
2022-09-23T06:50:30.081Z,7.52
2022-09-23T06:51:30.099Z,7.60
2022-09-23T06:52:30.070Z,7.63
2022-09-23T06:53:30.057Z,7.57
2022-09-23T06:54:30.047Z,7.67
2022-09-23T06:55:30.053Z,7.57
2022-09-23T06:56:32.550Z,7.53
2022-09-23T06:57:30.013Z,7.61
2022-09-23T06:58:30.023Z,7.63
2022-09-23T06:59:29.986Z,7.53
2022-09-23T07:00:30.980Z,7.58
2022-09-23T07:01:30.078Z,7.61
2022-09-23T07:02:30.176Z,7.60
2022-09-23T07:03:29.970Z,7.74
2022-09-23T07:04:29.948Z,7.75
2022-09-23T07:05:29.929Z,7.61
2022-09-23T07:06:29.925Z,7.67
2022-09-23T07:07:29.930Z,7.68
2022-09-23T07:08:29.928Z,7.74
2022-09-23T07:09:29.913Z,7.82
2022-09-23T07:10:29.883Z,7.89
2022-09-23T07:11:29.931Z,7.90
2022-09-23T07:12:29.869Z,7.71
2022-09-23T07:13:29.848Z,7.79
2022-09-23T07:14:29.847Z,7.85
2022-09-23T07:15:29.843Z,7.97
2022-09-23T07:16:29.951Z,8.12
2022-09-23T07:17:29.819Z,8.12
2022-09-23T07:18:34.264Z,8.15
2022-09-23T07:19:31.813Z,8.19
2022-09-23T07:20:29.817Z,8.30
2022-09-23T07:21:29.785Z,8.26
2022-09-23T07:22:29.764Z,8.36
2022-09-23T07:23:29.787Z,8.33
2022-09-23T07:24:29.755Z,8.30
2022-09-23T07:25:29.737Z,8.28
2022-09-23T07:26:29.738Z,8.11
2022-09-23T07:27:29.718Z,8.20
2022-09-23T07:28:29.742Z,8.33
2022-09-23T07:29:37.243Z,8.37
2022-09-23T07:30:30.697Z,8.53
2022-09-23T07:31:38.344Z,8.63
2022-09-23T07:32:44.077Z,8.66
2022-09-23T07:33:32.728Z,8.66
2022-09-23T07:34:30.675Z,8.58
2022-09-23T07:35:29.645Z,8.66
2022-09-23T07:36:29.646Z,8.74
2022-09-23T07:37:29.630Z,8.62
2022-09-23T07:38:29.617Z,8.71
2022-09-23T07:39:29.627Z,8.70
2022-09-23T07:40:29.679Z,8.81
2022-09-23T07:41:29.588Z,8.81
2022-09-23T07:42:29.581Z,8.87
2022-09-23T07:43:29.604Z,8.99
2022-09-23T07:44:29.566Z,9.15
2022-09-23T07:45:29.546Z,9.20
2022-09-23T07:46:29.653Z,9.08
2022-09-23T07:47:29.529Z,9.13
2022-09-23T07:48:33.883Z,9.23
2022-09-23T07:49:29.517Z,9.29
2022-09-23T07:50:29.509Z,9.38
2022-09-23T07:51:34.737Z,9.48
2022-09-23T07:52:30.494Z,9.83
2022-09-23T07:53:29.475Z,9.99
2022-09-23T07:54:29.492Z,9.99
2022-09-23T07:55:29.460Z,9.94
2022-09-23T07:56:29.443Z,10.11
2022-09-23T07:58:01.336Z,10.07
2022-09-23T07:58:29.460Z,10.01
2022-09-23T07:59:29.450Z,10.02
2022-09-23T08:00:29.416Z,10.12
2022-09-23T08:01:29.568Z,10.29
2022-09-23T08:02:29.442Z,10.38
2022-09-23T08:03:29.375Z,10.82
2022-09-23T08:04:29.379Z,11.11
2022-09-23T08:05:29.365Z,11.51
2022-09-23T08:06:29.368Z,11.91
2022-09-23T08:07:29.338Z,12.31
2022-09-23T08:08:29.337Z,12.74
2022-09-23T08:09:29.337Z,12.95
2022-09-23T08:10:29.335Z,13.23
2022-09-23T08:11:29.345Z,13.14
2022-09-23T08:12:29.284Z,12.90
2022-09-23T08:13:29.294Z,13.07
2022-09-23T08:14:29.298Z,13.17
2022-09-23T08:15:29.324Z,13.45
2022-09-23T08:16:29.321Z,13.71
2022-09-23T08:17:29.234Z,14.03
2022-09-23T08:18:29.239Z,14.22
2022-09-23T08:19:29.280Z,14.58
2022-09-23T08:20:29.287Z,14.77
2022-09-23T08:21:29.226Z,14.69
2022-09-23T08:22:29.247Z,14.89
2022-09-23T08:23:29.223Z,15.02
2022-09-23T08:24:29.214Z,15.13
2022-09-23T08:25:31.976Z,15.32
2022-09-23T08:26:29.154Z,15.34
2022-09-23T08:27:29.222Z,15.36
2022-09-23T08:28:29.132Z,15.34
2022-09-23T08:29:29.147Z,15.46
2022-09-23T08:30:29.168Z,15.50
2022-09-23T08:31:29.131Z,15.19
2022-09-23T08:32:29.092Z,14.96
2022-09-23T08:33:29.126Z,14.78
2022-09-23T08:34:29.097Z,14.80
2022-09-23T08:35:29.080Z,15.16
2022-09-23T08:36:29.059Z,15.29
2022-09-23T08:37:29.078Z,15.27
2022-09-23T08:38:29.087Z,15.57
2022-09-23T08:39:29.046Z,15.69
2022-09-23T08:40:29.064Z,15.39
2022-09-23T08:41:29.134Z,15.46
2022-09-23T08:42:29.014Z,15.71
2022-09-23T08:43:28.999Z,15.38
2022-09-23T08:44:29.048Z,15.25
2022-09-23T08:45:28.971Z,15.20
2022-09-23T08:46:29.008Z,15.11
2022-09-23T08:47:28.946Z,15.47
2022-09-23T08:48:28.955Z,15.67
2022-09-23T08:49:29.128Z,15.69
2022-09-23T08:50:28.943Z,15.90
2022-09-23T08:51:28.958Z,16.08
2022-09-23T08:52:28.904Z,16.35
2022-09-23T08:53:28.887Z,16.53
2022-09-23T08:54:28.875Z,16.64
2022-09-23T08:55:28.861Z,16.71
2022-09-23T08:56:28.980Z,16.66
2022-09-23T08:57:28.971Z,16.76
2022-09-23T08:58:29.640Z,16.88
2022-09-23T08:59:28.861Z,16.89
2022-09-23T09:00:28.805Z,16.94
2022-09-23T09:01:28.820Z,17.14
2022-09-23T09:02:28.832Z,17.08
2022-09-23T09:03:28.793Z,16.91
2022-09-23T09:04:28.791Z,16.94
2022-09-23T09:05:28.852Z,17.26
2022-09-23T09:06:28.767Z,17.18
2022-09-23T09:07:37.426Z,17.22
2022-09-23T09:08:30.810Z,17.16
2022-09-23T09:09:28.738Z,16.93
2022-09-23T09:10:28.716Z,17.15
2022-09-23T09:11:28.726Z,17.30
2022-09-23T09:12:28.718Z,17.55
2022-09-23T09:13:28.677Z,17.46
2022-09-23T09:14:29.705Z,17.77
2022-09-23T09:15:28.779Z,17.70
2022-09-23T09:16:55.625Z,17.86
2022-09-23T09:17:34.397Z,17.99
2022-09-23T09:18:29.651Z,18.02
2022-09-23T09:19:28.636Z,17.81
2022-09-23T09:20:28.645Z,17.48
2022-09-23T09:21:28.634Z,17.40
2022-09-23T09:22:28.612Z,17.43
2022-09-23T09:23:28.616Z,17.66
2022-09-23T09:24:28.591Z,17.86
2022-09-23T09:25:33.433Z,18.18
2022-09-23T09:26:30.597Z,18.26
2022-09-23T09:27:28.597Z,18.32
2022-09-23T09:28:28.575Z,18.27
2022-09-23T09:29:35.464Z,18.12
2022-09-23T09:30:29.534Z,17.93
2022-09-23T09:31:28.578Z,17.97
2022-09-23T09:32:28.509Z,17.75
2022-09-23T09:33:28.516Z,17.40
2022-09-23T09:34:28.521Z,17.14
2022-09-23T09:35:28.563Z,17.00
2022-09-23T09:36:30.855Z,17.18
2022-09-23T09:37:28.465Z,17.37
2022-09-23T09:38:28.440Z,17.43
2022-09-23T09:39:29.458Z,17.51
2022-09-23T09:40:28.494Z,17.33
2022-09-23T09:41:28.441Z,17.16
2022-09-23T09:42:28.466Z,17.06
2022-09-23T09:43:28.400Z,17.31
2022-09-23T09:44:28.435Z,16.91
2022-09-23T09:45:28.369Z,17.03
2022-09-23T09:46:28.435Z,17.22
2022-09-23T09:47:28.379Z,17.34
2022-09-23T09:48:28.359Z,17.40
2022-09-23T09:49:28.449Z,17.40
2022-09-23T09:50:28.365Z,17.46
2022-09-23T09:51:28.335Z,17.41
2022-09-23T09:52:28.301Z,17.62
2022-09-23T09:53:28.258Z,17.58
2022-09-23T09:54:28.241Z,17.79
2022-09-23T09:55:28.244Z,17.86
2022-09-23T09:56:28.220Z,18.02
2022-09-23T09:57:32.163Z,18.23
2022-09-23T09:58:28.200Z,18.44
2022-09-23T09:59:28.220Z,18.26
2022-09-23T10:00:28.182Z,18.21
2022-09-23T10:01:28.283Z,17.90
2022-09-23T10:02:28.173Z,18.05
2022-09-23T10:03:29.189Z,17.90
2022-09-23T10:04:28.207Z,17.81
2022-09-23T10:05:28.144Z,17.84
2022-09-23T10:06:28.148Z,17.92
2022-09-23T10:07:28.102Z,17.92
2022-09-23T10:08:28.116Z,17.71
2022-09-23T10:09:28.082Z,17.84
2022-09-23T10:10:32.862Z,17.77
2022-09-23T10:11:29.070Z,17.78
2022-09-23T10:12:28.287Z,17.89
2022-09-23T10:13:28.049Z,18.00
2022-09-23T10:14:28.039Z,17.93
2022-09-23T10:15:28.051Z,18.00
2022-09-23T10:16:28.050Z,18.08
2022-09-23T10:17:28.041Z,18.18
2022-09-23T10:18:27.993Z,18.30
2022-09-23T10:19:28.002Z,18.37
2022-09-23T10:20:28.004Z,18.52
2022-09-23T10:21:28.217Z,18.67
2022-09-23T10:22:28.952Z,18.60
2022-09-23T10:23:27.965Z,18.70
2022-09-23T10:24:27.937Z,18.66
2022-09-23T10:25:27.934Z,18.82
2022-09-23T10:26:27.966Z,18.99
2022-09-23T10:27:27.919Z,19.02
2022-09-23T10:28:27.892Z,18.73
2022-09-23T10:29:27.904Z,18.69
2022-09-23T10:30:27.982Z,18.72
2022-09-23T10:31:27.884Z,18.70
2022-09-23T10:32:27.876Z,18.72
2022-09-23T10:33:27.865Z,18.81
2022-09-23T10:34:27.848Z,18.90
2022-09-23T10:35:27.841Z,19.04
2022-09-23T10:36:28.009Z,18.88
2022-09-23T10:37:27.812Z,18.99
2022-09-23T10:38:27.802Z,19.10
2022-09-23T10:39:27.852Z,19.14
2022-09-23T10:40:27.859Z,19.11
2022-09-23T10:41:27.788Z,19.16
2022-09-23T10:42:27.765Z,19.19
2022-09-23T10:43:27.769Z,19.25
2022-09-23T10:44:27.748Z,19.22
2022-09-23T10:45:27.749Z,19.25
2022-09-23T10:46:27.768Z,19.31
2022-09-23T10:47:27.721Z,19.25
2022-09-23T10:48:27.706Z,19.21
2022-09-23T10:49:27.699Z,19.18
2022-09-23T10:50:27.707Z,18.99
2022-09-23T10:51:27.689Z,18.94
2022-09-23T10:52:27.681Z,18.76
2022-09-23T10:53:27.772Z,18.80
2022-09-23T10:54:27.670Z,18.80
2022-09-23T10:55:27.654Z,18.95
2022-09-23T10:56:27.654Z,19.10
2022-09-23T10:57:27.647Z,18.95
2022-09-23T10:58:27.639Z,18.92
2022-09-23T10:59:27.605Z,19.08
2022-09-23T11:00:27.602Z,19.10
2022-09-23T11:01:27.669Z,19.13
2022-09-23T11:02:27.593Z,19.06
2022-09-23T11:03:27.588Z,19.08
2022-09-23T11:04:28.711Z,19.04
2022-09-23T11:05:27.556Z,19.00
2022-09-23T11:06:27.544Z,18.90
2022-09-23T11:07:27.672Z,18.91
2022-09-23T11:08:27.529Z,19.02
2022-09-23T11:09:27.541Z,19.11
2022-09-23T11:10:45.452Z,19.06
2022-09-23T11:11:29.517Z,19.19
2022-09-23T11:12:27.491Z,19.25
2022-09-23T11:13:27.479Z,19.23
2022-09-23T11:14:27.478Z,19.29
2022-09-23T11:15:27.461Z,19.19
2022-09-23T11:16:27.593Z,19.25
2022-09-23T11:17:27.437Z,19.33
2022-09-23T11:18:27.440Z,19.43
2022-09-23T11:19:27.424Z,19.44
2022-09-23T11:20:27.426Z,19.58
2022-09-23T11:21:27.432Z,19.68
2022-09-23T11:22:27.387Z,19.68
2022-09-23T11:23:27.397Z,19.81
2022-09-23T11:24:27.386Z,19.76
2022-09-23T11:25:27.367Z,19.74
2022-09-23T11:26:32.249Z,19.59
2022-09-23T11:27:28.356Z,19.51
2022-09-23T11:28:27.336Z,19.63
2022-09-23T11:29:27.354Z,19.83
2022-09-23T11:30:27.358Z,19.88
2022-09-23T11:31:27.327Z,19.69
2022-09-23T11:32:27.297Z,19.74
2022-09-23T11:33:27.289Z,19.73
2022-09-23T11:34:27.301Z,19.73
2022-09-23T11:35:27.298Z,19.73
2022-09-23T11:36:27.275Z,19.77
2022-09-23T11:37:27.271Z,19.69
2022-09-23T11:38:27.236Z,19.80
2022-09-23T11:39:27.250Z,19.76
2022-09-23T11:40:27.337Z,19.71
2022-09-23T11:41:27.210Z,19.83
2022-09-23T11:42:27.194Z,19.88
2022-09-23T11:43:27.183Z,19.86
2022-09-23T11:44:27.179Z,19.71
2022-09-23T11:45:27.190Z,19.71
2022-09-23T11:46:27.216Z,19.65
2022-09-23T11:47:27.140Z,19.69
2022-09-23T11:48:27.133Z,19.61
2022-09-23T11:49:27.153Z,19.54
2022-09-23T11:50:27.121Z,19.63
2022-09-23T11:51:27.107Z,19.50
2022-09-23T11:52:27.111Z,19.47
2022-09-23T11:53:27.099Z,19.50
2022-09-23T11:54:27.097Z,19.40
2022-09-23T11:55:27.079Z,19.39
2022-09-23T11:56:34.882Z,19.51
2022-09-23T11:57:30.485Z,19.43
2022-09-23T11:58:27.121Z,19.47
2022-09-23T11:59:36.858Z,19.44
2022-09-23T12:00:29.044Z,19.40
2022-09-23T12:01:35.037Z,19.37
2022-09-23T12:02:31.121Z,19.41
2022-09-23T12:03:40.517Z,19.44
2022-09-23T12:04:28.387Z,19.47
2022-09-23T12:05:27.113Z,19.43
2022-09-23T12:06:26.966Z,19.41
2022-09-23T12:07:26.970Z,19.59
2022-09-23T12:08:26.968Z,19.56
2022-09-23T12:09:47.165Z,19.47
2022-09-23T12:10:28.945Z,19.37
2022-09-23T12:11:26.929Z,19.51
2022-09-23T12:12:27.327Z,19.43
2022-09-23T12:13:27.886Z,19.37
2022-09-23T12:14:26.886Z,19.32
2022-09-23T12:15:26.895Z,19.18
2022-09-23T12:16:26.910Z,19.21
2022-09-23T12:17:26.918Z,19.33
2022-09-23T12:18:26.993Z,19.39
2022-09-23T12:19:26.838Z,19.61
2022-09-23T12:20:26.828Z,19.71
2022-09-23T12:21:49.265Z,19.91
2022-09-23T12:22:28.840Z,20.08
2022-09-23T12:23:26.820Z,20.29
2022-09-23T12:24:26.805Z,20.24
2022-09-23T12:25:26.804Z,20.31
2022-09-23T12:26:26.776Z,20.17
2022-09-23T12:27:26.769Z,20.01
2022-09-23T12:28:26.773Z,19.95
2022-09-23T12:29:26.747Z,19.81
2022-09-23T12:30:26.763Z,19.95
2022-09-23T12:31:26.730Z,19.80
2022-09-23T12:32:26.710Z,19.73
2022-09-23T12:33:26.703Z,19.78
2022-09-23T12:34:26.702Z,19.74
2022-09-23T12:35:26.716Z,19.83
2022-09-23T12:36:26.680Z,19.74
2022-09-23T12:37:26.674Z,19.74
2022-09-23T12:38:26.657Z,19.76
2022-09-23T12:39:26.648Z,19.74
2022-09-23T12:40:26.677Z,19.81
2022-09-23T12:41:26.625Z,19.80
2022-09-23T12:42:30.798Z,19.81
2022-09-23T12:43:27.611Z,19.87
2022-09-23T12:44:26.619Z,19.88
2022-09-23T12:45:26.595Z,20.06
2022-09-23T12:46:26.576Z,20.11
2022-09-23T12:47:26.589Z,20.16
2022-09-23T12:48:26.560Z,20.11
2022-09-23T12:49:26.543Z,20.18
2022-09-23T12:50:26.542Z,20.16
2022-09-23T12:51:26.545Z,20.11
2022-09-23T12:52:26.533Z,20.06
2022-09-23T12:53:26.512Z,20.06
2022-09-23T12:54:26.502Z,20.03
2022-09-23T12:55:26.499Z,20.14
2022-09-23T12:56:26.511Z,20.10
2022-09-23T12:57:26.477Z,20.28
2022-09-23T12:58:26.460Z,20.23
2022-09-23T12:59:26.466Z,20.29
2022-09-23T13:00:28.862Z,20.24
2022-09-23T13:01:26.710Z,19.95
2022-09-23T13:02:26.494Z,19.99
2022-09-23T13:03:26.421Z,19.94
2022-09-23T13:04:26.394Z,19.88
2022-09-23T13:05:26.398Z,20.01
2022-09-23T13:06:26.377Z,20.14
2022-09-23T13:07:26.398Z,20.14
2022-09-23T13:08:26.373Z,20.16